createdAt,value
2022-12-03T00:02:16.671Z,47.50
2022-12-03T00:04:45.798Z,44.80
2022-12-03T00:07:16.686Z,40.13
2022-12-03T00:09:45.251Z,35.93
2022-12-03T00:12:13.269Z,45.17
2022-12-03T00:14:52.692Z,40.27
2022-12-03T00:17:21.671Z,41.17
2022-12-03T00:19:57.610Z,41.00
2022-12-03T00:22:36.182Z,44.57
2022-12-03T00:25:13.488Z,41.30
2022-12-03T00:27:41.754Z,39.23
2022-12-03T00:30:15.469Z,42.47
2022-12-03T00:32:43.804Z,40.73
2022-12-03T00:35:13.261Z,41.33
2022-12-03T00:37:41.326Z,43.97
2022-12-03T00:40:16.127Z,40.47
2022-12-03T00:42:44.369Z,39.63
2022-12-03T00:45:21.869Z,37.73
2022-12-03T00:47:59.449Z,38.67
2022-12-03T00:50:35.417Z,39.60
2022-12-03T00:53:03.880Z,35.47
2022-12-03T00:55:32.146Z,43.00
2022-12-03T00:58:00.807Z,39.17
2022-12-03T01:00:29.165Z,36.83
2022-12-03T01:02:57.189Z,35.63
2022-12-03T01:09:22.921Z,36.83
2022-12-03T01:11:50.136Z,43.23
2022-12-03T01:14:20.906Z,36.40
2022-12-03T01:16:51.561Z,36.53
2022-12-03T01:19:27.549Z,35.83
2022-12-03T01:21:56.331Z,35.07
2022-12-03T01:24:26.857Z,37.93
2022-12-03T01:26:59.936Z,34.03
2022-12-03T01:29:29.091Z,36.67
2022-12-03T01:32:18.368Z,31.00
2022-12-03T01:35:00.092Z,26.77
2022-12-03T01:37:31.032Z,23.90
2022-12-03T01:39:58.083Z,26.13
2022-12-03T01:42:43.831Z,22.07
2022-12-03T01:45:31.661Z,21.00
2022-12-03T01:48:09.546Z,23.33
2022-12-03T01:50:41.540Z,20.73
2022-12-03T01:53:16.656Z,24.57
2022-12-03T01:55:51.398Z,22.47
2022-12-03T01:58:37.597Z,29.03
2022-12-03T02:01:14.225Z,25.80
2022-12-03T02:03:51.590Z,23.10
2022-12-03T02:06:25.998Z,24.00
2022-12-03T02:09:00.350Z,26.70
2022-12-03T02:11:58.491Z,26.43
2022-12-03T02:14:26.066Z,22.57
2022-12-03T02:16:55.140Z,23.47
2022-12-03T02:19:30.887Z,27.03
2022-12-03T02:22:25.882Z,35.40
2022-12-03T02:25:07.515Z,24.77
2022-12-03T02:27:38.250Z,33.07
2022-12-03T02:30:11.318Z,32.10
2022-12-03T02:35:22.576Z,33.40
2022-12-03T02:38:12.943Z,30.03
2022-12-03T02:40:46.861Z,30.10
2022-12-03T02:43:21.311Z,31.63
2022-12-03T02:46:08.475Z,32.87
2022-12-03T02:48:39.217Z,33.73
2022-12-03T02:51:15.158Z,31.27
2022-12-03T02:53:51.481Z,29.73
2022-12-03T02:56:33.478Z,29.13
2022-12-03T02:59:08.816Z,26.73
2022-12-03T03:01:38.738Z,30.07
2022-12-03T03:04:06.997Z,28.17
2022-12-03T03:06:44.902Z,33.40
2022-12-03T03:09:21.960Z,34.13
2022-12-03T03:11:51.956Z,32.37
2022-12-03T03:14:22.181Z,31.30
2022-12-03T03:16:56.847Z,34.63
2022-12-03T03:19:26.387Z,33.77
2022-12-03T03:21:56.808Z,33.83
2022-12-03T03:24:25.915Z,27.37
2022-12-03T03:27:02.051Z,21.03
2022-12-03T03:29:32.981Z,39.53
2022-12-03T03:32:05.975Z,44.83
2022-12-03T03:34:36.870Z,51.83
2022-12-03T03:37:06.258Z,40.63
2022-12-03T03:39:43.335Z,43.13
2022-12-03T03:42:11.616Z,52.10
2022-12-03T03:44:41.918Z,45.83
2022-12-03T03:47:20.631Z,54.57
2022-12-03T03:49:53.943Z,49.10
2022-12-03T03:52:22.910Z,52.33
2022-12-03T03:54:53.443Z,56.50
2022-12-03T03:57:24.680Z,55.43
2022-12-03T03:59:54.320Z,48.00
2022-12-03T04:02:25.066Z,48.93
2022-12-03T04:07:40.865Z,51.90
2022-12-03T04:10:31.170Z,53.63
2022-12-03T04:13:03.177Z,53.07
2022-12-03T04:15:32.069Z,53.57
2022-12-03T04:18:19.392Z,50.80
2022-12-03T04:20:47.796Z,52.63
2022-12-03T04:23:16.096Z,49.37
2022-12-03T04:26:05.398Z,53.13
2022-12-03T04:28:50.788Z,53.27
2022-12-03T04:31:39.397Z,58.40
2022-12-03T04:34:26.403Z,55.57
2022-12-03T04:36:56.516Z,59.47
2022-12-03T04:39:26.612Z,45.57
2022-12-03T04:41:55.145Z,45.10
2022-12-03T04:44:40.797Z,56.80
2022-12-03T04:47:16.911Z,53.43
2022-12-03T04:49:53.750Z,53.90
2022-12-03T04:52:29.725Z,53.30
2022-12-03T04:55:00.500Z,55.07
2022-12-03T04:57:28.896Z,48.13
2022-12-03T04:59:59.360Z,53.57
2022-12-03T05:02:29.793Z,52.37
2022-12-03T05:04:58.235Z,52.07
2022-12-03T05:07:36.952Z,46.97
2022-12-03T05:10:06.675Z,53.13
2022-12-03T05:12:36.366Z,48.93
2022-12-03T05:15:10.722Z,60.40
2022-12-03T05:17:38.864Z,55.97
2022-12-03T05:20:26.581Z,52.33
2022-12-03T05:22:54.898Z,47.37
2022-12-03T05:25:31.101Z,52.87
2022-12-03T05:28:12.201Z,50.40
2022-12-03T05:30:40.550Z,46.87
2022-12-03T05:33:09.630Z,50.67
2022-12-03T05:35:38.081Z,42.27
2022-12-03T05:38:06.353Z,52.27
2022-12-03T05:40:37.175Z,48.17
2022-12-03T05:43:06.031Z,49.30
2022-12-03T05:45:54.730Z,41.50
2022-12-03T05:48:30.972Z,40.33
2022-12-03T05:50:59.361Z,40.13
2022-12-03T05:53:29.742Z,45.03
2022-12-03T05:55:58.081Z,40.73
2022-12-03T05:58:28.919Z,38.40
2022-12-03T06:00:59.115Z,42.90
2022-12-03T06:03:35.895Z,42.47
2022-12-03T06:06:04.700Z,37.10
2022-12-03T06:08:32.945Z,35.00
2022-12-03T06:11:02.844Z,42.53
2022-12-03T06:13:33.690Z,39.73
2022-12-03T06:16:02.261Z,43.07
2022-12-03T06:18:42.205Z,40.90
2022-12-03T06:21:10.276Z,44.17
2022-12-03T06:23:45.911Z,40.50
2022-12-03T06:26:35.002Z,40.57
2022-12-03T06:29:03.230Z,43.90
2022-12-03T06:31:31.543Z,37.57
2022-12-03T06:34:02.150Z,38.67
2022-12-03T06:36:32.716Z,40.87
2022-12-03T06:39:02.621Z,38.97
2022-12-03T06:41:31.111Z,35.63
2022-12-03T06:43:59.440Z,41.30
2022-12-03T06:46:28.076Z,38.23
2022-12-03T06:49:00.041Z,27.20
2022-12-03T06:51:30.735Z,33.73
2022-12-03T06:53:59.350Z,39.10
2022-12-03T06:56:34.403Z,42.30
2022-12-03T06:59:05.500Z,39.47
2022-12-03T07:01:34.876Z,37.93
2022-12-03T07:04:03.131Z,44.37
2022-12-03T07:06:33.521Z,36.87
2022-12-03T07:09:03.501Z,40.10
2022-12-03T07:11:41.411Z,33.87
2022-12-03T07:14:12.152Z,42.20
2022-12-03T07:16:43.923Z,35.60
2022-12-03T07:19:18.839Z,36.80
2022-12-03T07:21:47.686Z,39.23
2022-12-03T07:24:16.030Z,39.43
2022-12-03T07:26:46.709Z,37.57
2022-12-03T07:29:16.815Z,48.53
2022-12-03T07:31:48.873Z,39.93
2022-12-03T07:34:18.095Z,39.37
2022-12-03T07:36:48.525Z,34.90
2022-12-03T07:39:18.122Z,38.43
2022-12-03T07:41:46.230Z,42.47
2022-12-03T07:44:16.557Z,35.87
2022-12-03T07:46:46.332Z,43.73
2022-12-03T07:49:14.617Z,31.50
2022-12-03T07:51:51.781Z,31.93
2022-12-03T07:54:30.142Z,23.67
2022-12-03T07:57:05.632Z,27.07
2022-12-03T07:59:34.162Z,28.33
2022-12-03T08:02:04.014Z,35.27
2022-12-03T08:04:32.563Z,29.97
2022-12-03T08:07:02.201Z,34.37
2022-12-03T08:09:33.582Z,28.97
2022-12-03T08:12:08.616Z,28.40
2022-12-03T08:14:38.676Z,32.20
2022-12-03T08:17:23.882Z,26.37
2022-12-03T08:19:53.923Z,27.60
2022-12-03T08:22:25.877Z,32.20
2022-12-03T08:24:55.774Z,32.87
2022-12-03T08:27:32.185Z,32.67
2022-12-03T08:30:08.057Z,32.37
2022-12-03T08:32:38.981Z,26.80
2022-12-03T08:35:21.558Z,28.63
2022-12-03T08:38:23.371Z,28.20
2022-12-03T08:40:55.444Z,25.10
2022-12-03T08:43:28.751Z,29.47
2022-12-03T08:45:58.790Z,30.43
2022-12-03T08:48:36.773Z,59.57
2022-12-03T08:51:27.959Z,41.80
2022-12-03T08:54:10.675Z,33.27
2022-12-03T08:56:41.753Z,34.47
2022-12-03T08:59:24.305Z,34.27
2022-12-03T09:01:56.942Z,37.77
2022-12-03T09:04:46.460Z,16.17
2022-12-03T09:07:14.780Z,19.40
2022-12-03T09:09:41.716Z,32.87
2022-12-03T09:12:18.866Z,43.77
2022-12-03T09:14:47.305Z,45.07
2022-12-03T09:17:15.617Z,51.57
2022-12-03T09:19:46.378Z,37.90
2022-12-03T09:22:17.559Z,41.80
2022-12-03T09:24:45.351Z,42.80
2022-12-03T09:27:14.021Z,45.13
2022-12-03T09:29:43.341Z,44.60
2022-12-03T09:32:18.284Z,39.67
2022-12-03T09:34:49.462Z,37.37
2022-12-03T09:37:20.321Z,35.80
2022-12-03T09:39:49.301Z,43.83
2022-12-03T09:42:18.799Z,39.33
2022-12-03T09:44:48.301Z,37.83
2022-12-03T09:47:25.220Z,38.27
2022-12-03T09:49:56.285Z,34.00
2022-12-03T09:52:34.336Z,36.60
2022-12-03T09:55:17.049Z,36.07
2022-12-03T09:57:54.161Z,34.10
2022-12-03T10:00:25.667Z,34.33
2022-12-03T10:03:11.731Z,37.97
2022-12-03T10:05:46.616Z,34.10
2022-12-03T10:08:22.135Z,34.10
2022-12-03T10:10:59.260Z,33.70
2022-12-03T10:13:35.300Z,33.07
2022-12-03T10:16:36.264Z,36.33
2022-12-03T10:19:04.680Z,31.90
2022-12-03T10:21:47.242Z,30.00
2022-12-03T10:24:34.347Z,32.37
2022-12-03T10:27:20.257Z,30.17
2022-12-03T10:30:03.547Z,37.27
2022-12-03T10:32:47.885Z,33.13
2022-12-03T10:35:22.353Z,32.07
2022-12-03T10:38:18.618Z,35.93
2022-12-03T10:40:46.974Z,30.17
2022-12-03T10:43:24.231Z,29.57
2022-12-03T10:46:11.454Z,30.17
2022-12-03T10:48:40.630Z,34.73
2022-12-03T10:51:24.842Z,31.03
2022-12-03T10:53:57.271Z,28.73
2022-12-03T10:56:27.618Z,28.40
2022-12-03T10:59:05.186Z,32.43
2022-12-03T11:01:33.866Z,29.23
2022-12-03T11:04:06.133Z,30.57
2022-12-03T11:06:36.600Z,31.57
2022-12-03T11:09:09.205Z,33.30
2022-12-03T11:11:39.802Z,32.73
2022-12-03T11:14:18.053Z,31.70
2022-12-03T11:17:03.078Z,28.80
2022-12-03T11:19:46.711Z,28.40
2022-12-03T11:22:29.696Z,24.40
2022-12-03T11:25:28.017Z,26.20
2022-12-03T11:28:22.362Z,26.57
2022-12-03T11:30:56.841Z,19.13
2022-12-03T11:33:49.232Z,19.43
2022-12-03T11:36:31.955Z,21.10
2022-12-03T11:39:12.077Z,20.37
2022-12-03T11:42:01.376Z,23.90
2022-12-03T11:44:31.735Z,22.40
2022-12-03T11:47:02.098Z,24.67
2022-12-03T11:49:41.296Z,13.50
2022-12-03T11:52:33.901Z,20.47
2022-12-03T11:55:45.810Z,29.50
2022-12-03T11:58:30.857Z,33.10
2022-12-03T12:01:08.413Z,29.93
2022-12-03T12:04:10.974Z,34.30
2022-12-03T12:06:44.565Z,30.53
2022-12-03T12:09:13.759Z,34.17
2022-12-03T12:11:44.916Z,37.20
2022-12-03T12:14:21.356Z,31.90
2022-12-03T12:17:04.190Z,34.93
2022-12-03T12:19:44.004Z,29.00
2022-12-03T12:22:27.477Z,34.70
2022-12-03T12:25:31.214Z,27.63
2022-12-03T12:28:08.239Z,31.00
2022-12-03T12:30:41.912Z,29.07
2022-12-03T12:33:23.665Z,33.20
2022-12-03T12:35:52.353Z,29.60
2022-12-03T12:38:30.237Z,30.80
2022-12-03T12:41:00.688Z,29.90
2022-12-03T12:43:33.056Z,31.97
2022-12-03T12:46:46.817Z,30.73
2022-12-03T12:49:15.092Z,34.37
2022-12-03T12:51:47.935Z,28.37
2022-12-03T12:54:18.556Z,26.53
2022-12-03T12:56:51.678Z,25.30
2022-12-03T12:59:24.521Z,24.70
2022-12-03T13:01:54.185Z,23.77
2022-12-03T13:04:24.598Z,26.93
2022-12-03T13:06:55.204Z,29.93
2022-12-03T13:09:36.621Z,29.07
2022-12-03T13:12:13.744Z,26.27
2022-12-03T13:14:43.201Z,28.53
2022-12-03T13:17:25.641Z,25.07
2022-12-03T13:20:06.665Z,24.97
2022-12-03T13:22:36.439Z,26.07
2022-12-03T13:28:32.724Z,26.60
2022-12-03T13:31:32.387Z,25.43
2022-12-03T13:34:02.168Z,26.47
2022-12-03T13:36:43.718Z,26.77
2022-12-03T13:39:41.775Z,27.03
2022-12-03T13:42:34.780Z,26.77
2022-12-03T13:45:11.000Z,25.13
2022-12-03T13:47:48.541Z,25.63
2022-12-03T13:50:39.518Z,26.40
2022-12-03T13:53:33.373Z,26.13
2022-12-03T13:56:40.221Z,27.07
2022-12-03T13:59:09.670Z,23.03
2022-12-03T14:01:39.131Z,25.67
2022-12-03T14:04:09.745Z,29.43
2022-12-03T14:06:57.959Z,28.23
2022-12-03T14:09:26.253Z,31.97
2022-12-03T14:12:17.766Z,23.57
2022-12-03T14:14:47.116Z,21.30
2022-12-03T14:17:16.713Z,24.60
2022-12-03T14:19:47.036Z,23.83
2022-12-03T14:22:23.056Z,27.57
2022-12-03T14:24:57.458Z,29.40
2022-12-03T14:27:28.771Z,30.17
2022-12-03T14:29:57.162Z,27.77
2022-12-03T14:32:29.402Z,28.30
2022-12-03T14:34:59.160Z,28.47
2022-12-03T14:37:27.296Z,29.17
2022-12-03T14:39:55.558Z,30.87
2022-12-03T14:42:25.192Z,30.20
2022-12-03T14:44:56.162Z,29.17
2022-12-03T14:47:23.431Z,28.10
2022-12-03T14:49:53.697Z,29.30
2022-12-03T14:52:22.239Z,30.57
2022-12-03T14:54:52.812Z,27.43
2022-12-03T14:57:19.856Z,25.97
2022-12-03T14:59:48.579Z,31.40
2022-12-03T15:02:19.477Z,21.73
2022-12-03T15:04:49.797Z,17.53
2022-12-03T15:07:20.148Z,16.80
2022-12-03T15:09:51.350Z,19.10
2022-12-03T15:12:20.101Z,23.87
2022-12-03T15:14:51.016Z,22.10
2022-12-03T15:17:27.787Z,18.60
2022-12-03T15:20:02.920Z,19.07
2022-12-03T15:22:39.977Z,19.20
2022-12-03T15:25:11.441Z,19.43
2022-12-03T15:27:42.387Z,21.77
2022-12-03T15:30:11.018Z,20.60
2022-12-03T15:32:40.559Z,19.63
2022-12-03T15:35:10.759Z,22.90
2022-12-03T15:37:39.790Z,21.73
2022-12-03T15:40:08.956Z,19.67
2022-12-03T15:42:45.507Z,26.10
2022-12-03T15:45:15.515Z,22.30
2022-12-03T15:47:44.232Z,24.77
2022-12-03T15:50:13.830Z,25.23
2022-12-03T15:52:52.406Z,25.50
2022-12-03T15:55:22.331Z,22.20
2022-12-03T15:57:50.599Z,26.77
2022-12-03T16:00:21.401Z,26.70
2022-12-03T16:02:55.370Z,28.17
2022-12-03T16:05:25.327Z,31.23
2022-12-03T16:07:53.924Z,36.17
2022-12-03T16:10:25.145Z,32.47
2022-12-03T16:12:54.667Z,37.57
2022-12-03T16:15:27.206Z,38.53
2022-12-03T16:18:02.237Z,33.03
2022-12-03T16:20:40.901Z,34.70
2022-12-03T16:23:09.227Z,40.87
2022-12-03T16:25:39.566Z,41.90
2022-12-03T16:28:10.519Z,38.13
2022-12-03T16:30:39.856Z,37.20
2022-12-03T16:33:08.216Z,44.57
2022-12-03T16:35:35.536Z,41.03
2022-12-03T16:38:05.116Z,32.97
2022-12-03T16:40:34.843Z,39.00
2022-12-03T16:43:05.265Z,39.33
2022-12-03T16:45:51.437Z,38.80
2022-12-03T16:48:23.222Z,40.47
2022-12-03T16:50:51.535Z,41.83
2022-12-03T16:53:21.278Z,41.77
2022-12-03T16:55:49.742Z,39.03
2022-12-03T16:58:34.986Z,38.07
2022-12-03T17:01:04.180Z,33.87
2022-12-03T17:03:34.307Z,35.50
2022-12-03T17:06:03.226Z,35.70
2022-12-03T17:08:34.583Z,41.17
2022-12-03T17:11:11.566Z,35.20
2022-12-03T17:13:40.041Z,39.83
2022-12-03T17:16:10.429Z,41.57
2022-12-03T17:18:42.221Z,38.30
2022-12-03T17:21:10.781Z,32.47
2022-12-03T17:23:40.713Z,38.70
2022-12-03T17:26:11.881Z,37.23
2022-12-03T17:28:40.154Z,34.30
2022-12-03T17:31:13.110Z,38.33
2022-12-03T17:33:41.641Z,38.77
2022-12-03T17:36:10.076Z,38.27
2022-12-03T17:38:40.456Z,37.00
2022-12-03T17:41:10.767Z,39.60
2022-12-03T17:43:39.461Z,38.87
2022-12-03T17:46:07.679Z,33.07
2022-12-03T17:48:37.358Z,35.70
2022-12-03T17:51:09.340Z,37.50
2022-12-03T17:53:37.377Z,36.70
2022-12-03T17:56:06.078Z,34.70
2022-12-03T17:58:41.962Z,30.17
2022-12-03T18:01:18.438Z,35.73
2022-12-03T18:03:46.725Z,37.33
2022-12-03T18:06:18.041Z,40.20
2022-12-03T18:08:49.056Z,33.67
2022-12-03T18:11:25.669Z,49.47
2022-12-03T18:13:53.780Z,47.80
2022-12-03T18:16:20.813Z,45.57
2022-12-03T18:19:02.014Z,38.03
2022-12-03T18:21:37.305Z,38.00
2022-12-03T18:24:05.975Z,38.77
2022-12-03T18:26:34.137Z,38.13
2022-12-03T18:29:03.475Z,35.20
2022-12-03T18:31:34.426Z,36.03
2022-12-03T18:34:04.680Z,35.60
2022-12-03T18:36:36.415Z,32.13
2022-12-03T18:39:10.286Z,38.70
2022-12-03T18:41:39.937Z,36.03
2022-12-03T18:44:18.690Z,35.07
2022-12-03T18:46:55.703Z,38.13
2022-12-03T18:49:25.857Z,34.80
2022-12-03T18:52:02.661Z,34.60
2022-12-03T18:54:32.076Z,40.73
2022-12-03T18:57:02.440Z,34.10
2022-12-03T18:59:33.445Z,32.77
2022-12-03T19:02:04.413Z,36.60
2022-12-03T19:04:31.670Z,40.37
2022-12-03T19:07:01.076Z,36.87
2022-12-03T19:09:29.695Z,40.90
2022-12-03T19:12:05.842Z,36.23
2022-12-03T19:14:39.336Z,41.47
2022-12-03T19:17:10.031Z,43.03
2022-12-03T19:19:37.995Z,32.90
2022-12-03T19:22:08.101Z,35.57
2022-12-03T19:24:44.951Z,33.43
2022-12-03T19:27:22.176Z,38.60
2022-12-03T19:30:00.717Z,37.73
2022-12-03T19:32:38.067Z,35.93
2022-12-03T19:35:07.975Z,35.47
2022-12-03T19:37:46.415Z,38.83
2022-12-03T19:40:17.632Z,37.10
2022-12-03T19:42:46.014Z,38.07
2022-12-03T19:45:12.992Z,34.00
2022-12-03T19:47:43.530Z,33.50
2022-12-03T19:50:11.882Z,30.63
2022-12-03T19:52:41.256Z,32.30
2022-12-03T19:55:10.761Z,32.03
2022-12-03T19:57:46.842Z,34.60
2022-12-03T20:00:15.758Z,38.37
2022-12-03T20:02:53.189Z,36.20
2022-12-03T20:08:17.538Z,38.13
2022-12-03T20:10:55.896Z,37.10
2022-12-03T20:13:25.652Z,38.17
2022-12-03T20:15:54.536Z,33.27
2022-12-03T20:18:25.106Z,28.70
2022-12-03T20:21:14.391Z,38.10
2022-12-03T20:23:50.341Z,40.70
2022-12-03T20:26:20.457Z,37.03
2022-12-03T20:28:49.402Z,32.50
2022-12-03T20:31:23.796Z,26.13
2022-12-03T20:33:55.841Z,23.27
2022-12-03T20:36:45.696Z,26.10
2022-12-03T20:39:15.131Z,23.37
2022-12-03T20:41:45.569Z,26.53
2022-12-03T20:44:17.761Z,29.00
2022-12-03T20:46:46.616Z,27.70
2022-12-03T20:49:23.653Z,26.40
2022-12-03T20:52:04.384Z,23.43
2022-12-03T20:54:42.970Z,23.60
2022-12-03T20:57:11.320Z,29.27
2022-12-03T20:59:41.917Z,25.40
2022-12-03T21:02:12.635Z,33.80
2022-12-03T21:07:27.438Z,26.93
2022-12-03T21:09:55.857Z,24.90
2022-12-03T21:12:25.851Z,21.83
2022-12-03T21:15:03.899Z,34.27
2022-12-03T21:17:32.984Z,25.63
2022-12-03T21:20:04.885Z,33.43
2022-12-03T21:22:38.133Z,31.10
2022-12-03T21:25:08.078Z,26.10
2022-12-03T21:27:37.457Z,28.97
2022-12-03T21:30:09.857Z,30.23
2022-12-03T21:32:40.871Z,33.77
2022-12-03T21:35:11.397Z,20.10
2022-12-03T21:37:39.667Z,46.27
2022-12-03T21:40:12.492Z,48.87
2022-12-03T21:42:42.231Z,40.80
2022-12-03T21:45:11.007Z,34.87
2022-12-03T21:47:41.663Z,19.57
2022-12-03T21:50:12.238Z,24.53
2022-12-03T21:52:43.041Z,25.67
2022-12-03T21:55:11.870Z,35.43
2022-12-03T21:57:50.262Z,24.70
2022-12-03T22:00:27.839Z,38.13
2022-12-03T22:03:04.269Z,42.63
2022-12-03T22:08:27.378Z,49.57
2022-12-03T22:10:57.758Z,42.67
2022-12-03T22:13:25.898Z,49.33
2022-12-03T22:15:54.630Z,60.07
2022-12-03T22:18:25.185Z,54.13
2022-12-03T22:21:01.861Z,62.10
2022-12-03T22:23:33.963Z,66.13
2022-12-03T22:26:05.211Z,68.93
2022-12-03T22:28:50.292Z,66.57
2022-12-03T22:31:30.481Z,60.20
2022-12-03T22:33:59.441Z,53.00
2022-12-03T22:36:27.896Z,55.77
2022-12-03T22:38:58.967Z,52.50
2022-12-03T22:41:27.017Z,47.20
2022-12-03T22:43:59.022Z,44.77
2022-12-03T22:46:28.641Z,57.93
2022-12-03T22:49:00.625Z,47.93
2022-12-03T22:51:33.731Z,59.50
2022-12-03T22:54:02.431Z,66.93
2022-12-03T22:56:38.158Z,50.63
2022-12-03T22:59:12.151Z,55.17
2022-12-03T23:01:41.867Z,59.33
2022-12-03T23:04:11.712Z,52.67
2022-12-03T23:06:40.576Z,43.37
2022-12-03T23:09:09.393Z,36.40
2022-12-03T23:11:42.721Z,44.70
2022-12-03T23:14:13.189Z,47.33
2022-12-03T23:16:41.474Z,45.43
2022-12-03T23:19:13.163Z,36.33
2022-12-03T23:21:43.735Z,44.40
2022-12-03T23:24:20.081Z,47.73
2022-12-03T23:26:48.671Z,53.07
2022-12-03T23:29:17.591Z,43.40
2022-12-03T23:31:46.422Z,40.57
2022-12-03T23:34:14.749Z,28.40
2022-12-03T23:36:45.141Z,26.60
2022-12-03T23:39:21.302Z,26.40
2022-12-03T23:41:54.711Z,26.83
2022-12-03T23:44:24.521Z,24.73
2022-12-03T23:46:52.793Z,21.70
2022-12-03T23:49:22.506Z,22.90
2022-12-03T23:51:58.359Z,24.63
2022-12-03T23:54:36.341Z,27.37
2022-12-03T23:57:12.198Z,25.80
2022-12-03T23:59:42.781Z,21.33
